Time;durP1;ratioP1;P1;durP2;ratioP2;P2;SDS_P1;SDS_P2;PMS_P1;PMS_P2;Temp;Humidity;BMP_temperature;BMP_pressure;BME280_temperature;BME280_humidity;BME280_pressure;Samples;Min_cycle;Max_cycle;Signal;HPM_P1;HPM_P2
2022/12/01 00:00:56;;;;;;;95.05;35.67;;;;;;;;;;5112807;28;20067;-63
2022/12/01 00:03:22;;;;;;;90.72;35.35;;;;;;;;;;5108502;28;20031;-63
2022/12/01 00:05:57;;;;;;;85.55;33.35;;;;;;;;;;5092493;28;20046;-63
2022/12/01 00:08:23;;;;;;;90.72;35.65;;;;;;;;;;5102674;28;20463;-63
2022/12/01 00:10:49;;;;;;;83.95;32.50;;;;;;;;;;5112941;28;20043;-63
2022/12/01 00:13:15;;;;;;;85.65;33.28;;;;;;;;;;5112324;28;20089;-63
2022/12/01 00:15:41;;;;;;;90.30;34.33;;;;;;;;;;5112780;28;20111;-63
2022/12/01 00:18:07;;;;;;;91.82;33.42;;;;;;;;;;5112551;28;20104;-63
2022/12/01 00:20:34;;;;;;;89.70;33.55;;;;;;;;;;5111515;28;20051;-63
2022/12/01 00:23:00;;;;;;;90.78;35.00;;;;;;;;;;5112637;28;20082;-63
2022/12/01 00:25:26;;;;;;;86.95;34.33;;;;;;;;;;5111484;28;20052;-63
2022/12/01 00:27:53;;;;;;;86.65;33.58;;;;;;;;;;5112394;28;20621;-63
2022/12/01 00:30:20;;;;;;;88.90;33.38;;;;;;;;;;5111682;28;20036;-63
2022/12/01 00:32:46;;;;;;;94.07;34.33;;;;;;;;;;5112560;28;20435;-63
2022/12/01 00:35:12;;;;;;;82.05;33.05;;;;;;;;;;5111934;28;20075;-63
2022/12/01 00:37:39;;;;;;;88.22;34.33;;;;;;;;;;5112296;28;20475;-63
2022/12/01 00:40:05;;;;;;;90.20;33.35;;;;;;;;;;5112470;28;20123;-63
2022/12/01 00:42:31;;;;;;;86.97;33.15;;;;;;;;;;5111721;28;20071;-63
2022/12/01 00:44:57;;;;;;;87.25;35.55;;;;;;;;;;5110653;28;20043;-63
2022/12/01 00:47:23;;;;;;;89.50;36.53;;;;;;;;;;5112290;28;20039;-63
2022/12/01 00:49:51;;;;;;;85.55;33.50;;;;;;;;;;5111639;28;20464;-63
2022/12/01 00:52:18;;;;;;;87.45;34.58;;;;;;;;;;5111928;28;20123;-63
2022/12/01 00:54:44;;;;;;;91.32;35.38;;;;;;;;;;5108268;28;20055;-63
2022/12/01 00:57:11;;;;;;;93.78;34.72;;;;;;;;;;5111492;28;20058;-63
2022/12/01 00:59:38;;;;;;;85.75;34.92;;;;;;;;;;5111320;28;20050;-63
2022/12/01 01:02:05;;;;;;;84.22;34.35;;;;;;;;;;5111627;28;20032;-63
2022/12/01 01:04:31;;;;;;;81.70;33.80;;;;;;;;;;5104540;28;20073;-63
2022/12/01 01:06:57;;;;;;;92.35;35.13;;;;;;;;;;5111730;28;20046;-63
2022/12/01 01:09:24;;;;;;;92.13;35.70;;;;;;;;;;5111700;28;20031;-63
2022/12/01 01:11:51;;;;;;;91.07;35.10;;;;;;;;;;5111471;28;20090;-63
2022/12/01 01:14:17;;;;;;;83.40;34.95;;;;;;;;;;5111811;28;20039;-63
2022/12/01 01:16:43;;;;;;;87.20;36.20;;;;;;;;;;5111180;28;20056;-63
2022/12/01 01:19:09;;;;;;;87.03;34.33;;;;;;;;;;5111044;28;20530;-63
2022/12/01 01:21:35;;;;;;;97.05;34.92;;;;;;;;;;5111047;28;20035;-63
2022/12/01 01:24:01;;;;;;;91.63;34.53;;;;;;;;;;5111817;28;20036;-63
2022/12/01 01:26:29;;;;;;;91.97;34.97;;;;;;;;;;5111029;28;20046;-63
2022/12/01 01:29:00;;;;;;;86.97;35.17;;;;;;;;;;5111455;28;20378;-63
2022/12/01 01:31:27;;;;;;;82.40;33.65;;;;;;;;;;5111621;28;20036;-63
2022/12/01 01:33:54;;;;;;;92.53;36.03;;;;;;;;;;5111000;28;20042;-63
2022/12/01 01:36:20;;;;;;;85.18;33.28;;;;;;;;;;5113691;28;20043;-63
2022/12/01 01:38:46;;;;;;;90.18;33.80;;;;;;;;;;5115689;28;20043;-63
2022/12/01 01:41:13;;;;;;;83.47;34.97;;;;;;;;;;5115207;28;20043;-63
2022/12/01 01:43:46;;;;;;;85.85;33.63;;;;;;;;;;5115434;28;20050;-63
2022/12/01 01:46:15;;;;;;;84.00;34.10;;;;;;;;;;5115582;28;20100;-63
2022/12/01 01:48:42;;;;;;;89.53;34.92;;;;;;;;;;5115354;28;20079;-63
2022/12/01 01:51:09;;;;;;;85.03;34.50;;;;;;;;;;5114991;28;20039;-63
2022/12/01 01:53:35;;;;;;;94.10;34.70;;;;;;;;;;5115763;28;20032;-63
2022/12/01 01:56:02;;;;;;;82.43;33.53;;;;;;;;;;5114933;28;20427;-63
2022/12/01 01:58:29;;;;;;;84.50;35.08;;;;;;;;;;5115678;28;20039;-63
2022/12/01 02:00:55;;;;;;;83.70;35.10;;;;;;;;;;5115160;28;20433;-63
2022/12/01 02:03:21;;;;;;;84.65;33.55;;;;;;;;;;5114974;28;20063;-63
2022/12/01 02:05:47;;;;;;;81.13;35.03;;;;;;;;;;5115298;28;20122;-63
2022/12/01 02:08:13;;;;;;;79.55;34.95;;;;;;;;;;5114975;28;20040;-63
2022/12/01 02:11:04;;;;;;;82.30;33.80;;;;;;;;;;5114348;28;20122;-63
2022/12/01 02:13:41;;;;;;;78.07;32.92;;;;;;;;;;5115239;28;20039;-63
2022/12/01 02:16:07;;;;;;;84.28;35.58;;;;;;;;;;5114944;28;20059;-63
2022/12/01 02:18:33;;;;;;;75.40;32.80;;;;;;;;;;5114555;28;20061;-63
2022/12/01 02:20:59;;;;;;;84.55;34.58;;;;;;;;;;5114966;28;20082;-63
2022/12/01 02:23:37;;;;;;;86.68;35.20;;;;;;;;;;5115022;28;20062;-63
2022/12/01 02:26:02;;;;;;;88.57;34.50;;;;;;;;;;5114469;28;20054;-63
2022/12/01 02:28:38;;;;;;;87.97;35.42;;;;;;;;;;5115108;28;20373;-63
2022/12/01 02:31:12;;;;;;;79.43;33.67;;;;;;;;;;5114607;28;20054;-63
2022/12/01 02:33:43;;;;;;;77.05;32.70;;;;;;;;;;5114481;28;20039;-63
2022/12/01 02:36:19;;;;;;;81.65;33.78;;;;;;;;;;5114490;28;20085;-63
2022/12/01 02:38:51;;;;;;;86.63;36.05;;;;;;;;;;5114816;28;20059;-63
2022/12/01 02:41:29;;;;;;;78.72;34.50;;;;;;;;;;5113953;28;20042;-63
2022/12/01 02:44:08;;;;;;;77.63;34.80;;;;;;;;;;5114741;28;20063;-63
2022/12/01 02:46:34;;;;;;;80.78;36.00;;;;;;;;;;5113784;28;20047;-63
2022/12/01 02:49:03;;;;;;;82.80;34.03;;;;;;;;;;5113459;28;20044;-63
2022/12/01 02:51:33;;;;;;;85.80;35.90;;;;;;;;;;5114523;28;20023;-63
2022/12/01 02:54:00;;;;;;;89.22;37.20;;;;;;;;;;5114205;28;20089;-63
2022/12/01 02:56:27;;;;;;;88.88;37.42;;;;;;;;;;5113897;28;20039;-63
2022/12/01 02:58:53;;;;;;;82.57;34.45;;;;;;;;;;5113923;28;20052;-63
2022/12/01 03:01:24;;;;;;;79.85;33.80;;;;;;;;;;5114188;28;20039;-63
2022/12/01 03:04:10;;;;;;;85.85;34.83;;;;;;;;;;5112700;28;20067;-63
2022/12/01 03:06:37;;;;;;;82.45;34.88;;;;;;;;;;5113826;28;20039;-63
2022/12/01 03:09:03;;;;;;;85.18;36.28;;;;;;;;;;5113621;28;20059;-63
2022/12/01 03:11:35;;;;;;;90.40;37.17;;;;;;;;;;5114206;28;20043;-63
2022/12/01 03:14:12;;;;;;;89.97;35.75;;;;;;;;;;5113919;28;20043;-63
2022/12/01 03:16:49;;;;;;;85.55;34.83;;;;;;;;;;5112945;28;20055;-63
2022/12/01 03:19:18;;;;;;;91.15;37.35;;;;;;;;;;5113836;28;20535;-63
2022/12/01 03:21:52;;;;;;;82.60;36.05;;;;;;;;;;5113965;28;20061;-63
2022/12/01 03:24:20;;;;;;;82.22;35.78;;;;;;;;;;5113478;28;20062;-63
2022/12/01 03:26:48;;;;;;;79.22;35.58;;;;;;;;;;5113912;28;20052;-63
2022/12/01 03:29:17;;;;;;;82.70;36.15;;;;;;;;;;5113973;28;20035;-63
2022/12/01 03:31:45;;;;;;;82.20;36.08;;;;;;;;;;5112053;28;20347;-63
2022/12/01 03:34:11;;;;;;;88.70;36.30;;;;;;;;;;5113953;28;20066;-63
2022/12/01 03:36:43;;;;;;;91.72;37.88;;;;;;;;;;5113754;28;20070;-63
2022/12/01 03:39:13;;;;;;;87.60;37.35;;;;;;;;;;5113422;28;20040;-63
2022/12/01 03:41:45;;;;;;;86.18;35.33;;;;;;;;;;5113640;28;20039;-63
2022/12/01 03:44:15;;;;;;;83.55;34.75;;;;;;;;;;5113652;28;20040;-63
2022/12/01 03:46:51;;;;;;;89.93;37.90;;;;;;;;;;5113230;28;20422;-63
2022/12/01 03:49:17;;;;;;;87.18;35.92;;;;;;;;;;5113760;28;20078;-63
2022/12/01 03:51:55;;;;;;;92.03;39.05;;;;;;;;;;5113599;28;20048;-63
2022/12/01 03:54:26;;;;;;;88.32;37.58;;;;;;;;;;5112908;28;20043;-63
2022/12/01 03:56:55;;;;;;;84.88;35.95;;;;;;;;;;5113462;28;20089;-63
2022/12/01 03:59:23;;;;;;;95.25;38.75;;;;;;;;;;5112062;28;20075;-63
2022/12/01 04:01:50;;;;;;;91.25;36.83;;;;;;;;;;5112853;28;20370;-63
2022/12/01 04:04:16;;;;;;;94.80;37.33;;;;;;;;;;5101143;28;20047;-63
2022/12/01 04:06:43;;;;;;;94.30;37.97;;;;;;;;;;5092268;28;20048;-63
2022/12/01 04:09:09;;;;;;;92.78;38.50;;;;;;;;;;5102288;28;20110;-63
2022/12/01 04:14:20;;;;;;;85.15;37.42;;;;;;;;;;5113143;28;20417;-63
2022/12/01 04:16:47;;;;;;;86.82;37.30;;;;;;;;;;5112449;28;20052;-63
2022/12/01 04:19:13;;;;;;;93.47;38.85;;;;;;;;;;5112673;28;20593;-63
2022/12/01 04:21:39;;;;;;;83.80;36.10;;;;;;;;;;5112964;28;20075;-63
2022/12/01 04:24:05;;;;;;;87.70;36.40;;;;;;;;;;5112146;28;20047;-63
2022/12/01 04:26:33;;;;;;;87.32;36.92;;;;;;;;;;5112853;28;20081;-63
2022/12/01 04:28:59;;;;;;;86.97;36.38;;;;;;;;;;5112803;28;20359;-63
2022/12/01 04:31:25;;;;;;;91.10;36.03;;;;;;;;;;5112308;28;20039;-63
2022/12/01 04:33:53;;;;;;;80.65;35.55;;;;;;;;;;5112806;28;20366;-63
2022/12/01 04:36:19;;;;;;;97.45;38.47;;;;;;;;;;5112828;28;20067;-63
2022/12/01 04:38:45;;;;;;;90.65;36.97;;;;;;;;;;5112460;28;20093;-63
2022/12/01 04:41:12;;;;;;;93.00;36.83;;;;;;;;;;5112561;28;20043;-63
2022/12/01 04:43:38;;;;;;;95.15;38.50;;;;;;;;;;5112529;28;20088;-63
2022/12/01 04:46:04;;;;;;;103.65;40.75;;;;;;;;;;5111951;28;20042;-63
2022/12/01 04:48:30;;;;;;;96.40;38.00;;;;;;;;;;5112299;28;20040;-63
2022/12/01 04:50:57;;;;;;;88.20;37.42;;;;;;;;;;5112347;28;20074;-63
2022/12/01 04:53:23;;;;;;;91.15;37.75;;;;;;;;;;5112012;28;20043;-63
2022/12/01 04:55:49;;;;;;;88.13;38.30;;;;;;;;;;5112503;28;20050;-63
2022/12/01 04:58:15;;;;;;;98.68;40.25;;;;;;;;;;5112453;28;20524;-63
2022/12/01 05:00:41;;;;;;;95.57;39.63;;;;;;;;;;5111712;28;20043;-63
2022/12/01 05:03:07;;;;;;;91.47;38.60;;;;;;;;;;5109786;28;20118;-63
2022/12/01 05:05:33;;;;;;;95.65;40.20;;;;;;;;;;5091637;28;20166;-63
2022/12/01 05:07:59;;;;;;;107.70;41.45;;;;;;;;;;5091434;28;20090;-63
2022/12/01 05:10:25;;;;;;;106.90;41.33;;;;;;;;;;5111829;28;20515;-63
2022/12/01 05:12:52;;;;;;;102.40;40.70;;;;;;;;;;5112311;28;20042;-63
2022/12/01 05:15:18;;;;;;;97.28;39.13;;;;;;;;;;5111860;28;20385;-63
2022/12/01 05:17:44;;;;;;;101.22;38.67;;;;;;;;;;5111590;28;20054;-63
2022/12/01 05:21:00;;;;;;;96.00;40.17;;;;;;;;;;5112024;28;20696;-63
2022/12/01 05:23:06;;;;;;;95.35;39.78;;;;;;;;;;5105513;28;20046;-63
2022/12/01 05:25:33;;;;;;;96.43;39.22;;;;;;;;;;5106843;28;20269;-63
2022/12/01 05:27:59;;;;;;;101.10;39.42;;;;;;;;;;5092061;28;20099;-63
2022/12/01 05:30:25;;;;;;;99.57;39.63;;;;;;;;;;5090342;28;20123;-63
2022/12/01 05:32:51;;;;;;;100.80;40.97;;;;;;;;;;5092470;28;20043;-63
2022/12/01 05:35:17;;;;;;;109.80;42.40;;;;;;;;;;5092107;28;20436;-63
2022/12/01 05:37:43;;;;;;;105.97;41.35;;;;;;;;;;5091356;28;20047;-63
2022/12/01 05:40:09;;;;;;;99.18;39.95;;;;;;;;;;5104056;28;20043;-63
2022/12/01 05:42:35;;;;;;;103.18;41.47;;;;;;;;;;5112186;28;20555;-63
2022/12/01 05:45:01;;;;;;;102.55;41.13;;;;;;;;;;5111460;28;20043;-63
2022/12/01 05:47:28;;;;;;;108.63;42.33;;;;;;;;;;5111928;28;20046;-63
2022/12/01 05:49:54;;;;;;;94.53;39.40;;;;;;;;;;5111910;28;20122;-63
2022/12/01 05:52:20;;;;;;;107.18;39.53;;;;;;;;;;5111592;28;20036;-63
2022/12/01 05:54:46;;;;;;;100.45;40.22;;;;;;;;;;5111741;28;20036;-63
2022/12/01 05:57:12;;;;;;;96.35;36.85;;;;;;;;;;5112209;28;20063;-63
2022/12/01 05:59:38;;;;;;;103.18;41.38;;;;;;;;;;5111802;28;20039;-63
2022/12/01 06:02:04;;;;;;;91.93;39.28;;;;;;;;;;5111965;28;20091;-63
2022/12/01 06:04:30;;;;;;;95.63;40.72;;;;;;;;;;5091062;28;20071;-63
2022/12/01 06:06:56;;;;;;;101.00;40.53;;;;;;;;;;5092888;28;20040;-63
2022/12/01 06:09:22;;;;;;;100.38;40.78;;;;;;;;;;5111153;28;20032;-63
2022/12/01 06:11:48;;;;;;;101.70;39.97;;;;;;;;;;5111497;28;20036;-63
2022/12/01 06:14:14;;;;;;;99.03;40.30;;;;;;;;;;5110922;28;20050;-63
2022/12/01 06:16:40;;;;;;;104.47;41.75;;;;;;;;;;5111063;28;20054;-63
2022/12/01 06:19:06;;;;;;;94.50;38.28;;;;;;;;;;5111183;28;20032;-63
2022/12/01 06:21:32;;;;;;;102.90;38.83;;;;;;;;;;5110938;28;20040;-63
2022/12/01 06:23:58;;;;;;;100.95;41.17;;;;;;;;;;5114551;28;20078;-62
2022/12/01 06:26:24;;;;;;;103.70;41.83;;;;;;;;;;5102512;28;20036;-62
2022/12/01 06:28:50;;;;;;;105.18;39.97;;;;;;;;;;5094441;28;20419;-63
2022/12/01 06:31:16;;;;;;;105.55;41.38;;;;;;;;;;5111208;28;20039;-63
2022/12/01 06:33:42;;;;;;;103.18;39.92;;;;;;;;;;5115325;28;20036;-63
2022/12/01 06:36:09;;;;;;;104.97;39.65;;;;;;;;;;5114617;28;20040;-63
2022/12/01 06:38:36;;;;;;;101.80;41.70;;;;;;;;;;5115197;28;20127;-63
2022/12/01 06:41:02;;;;;;;105.70;40.97;;;;;;;;;;5115380;28;20114;-63
2022/12/01 06:43:28;;;;;;;101.50;41.38;;;;;;;;;;5114305;28;20043;-63
2022/12/01 06:45:54;;;;;;;110.10;42.72;;;;;;;;;;5115118;28;20442;-63
2022/12/01 06:48:20;;;;;;;101.78;39.78;;;;;;;;;;5114292;28;20043;-63
2022/12/01 06:50:46;;;;;;;113.45;42.40;;;;;;;;;;5114698;28;20035;-63
2022/12/01 06:53:12;;;;;;;111.30;41.53;;;;;;;;;;5112709;28;20047;-63
2022/12/01 06:55:39;;;;;;;114.50;43.05;;;;;;;;;;5114386;28;20043;-63
2022/12/01 06:58:05;;;;;;;103.70;39.47;;;;;;;;;;5114214;28;20035;-63
2022/12/01 07:00:31;;;;;;;105.90;41.55;;;;;;;;;;5113986;28;20051;-63
2022/12/01 07:02:57;;;;;;;107.47;41.03;;;;;;;;;;5113030;28;20043;-63
2022/12/01 07:05:23;;;;;;;109.80;39.90;;;;;;;;;;5111949;28;20385;-63
2022/12/01 07:07:49;;;;;;;102.03;39.33;;;;;;;;;;5114433;28;20051;-63
2022/12/01 07:10:15;;;;;;;108.05;39.92;;;;;;;;;;5114214;28;20036;-63
2022/12/01 07:12:41;;;;;;;112.53;40.72;;;;;;;;;;5114361;28;20035;-63
2022/12/01 07:15:08;;;;;;;102.25;40.00;;;;;;;;;;5113952;28;20497;-63
2022/12/01 07:17:34;;;;;;;104.13;41.85;;;;;;;;;;5112440;28;20063;-63
2022/12/01 07:20:00;;;;;;;98.97;39.75;;;;;;;;;;5114668;28;20146;-62
2022/12/01 07:22:27;;;;;;;102.22;40.50;;;;;;;;;;5113237;28;20509;-62
2022/12/01 07:24:53;;;;;;;103.07;40.30;;;;;;;;;;5114729;28;20043;-63
2022/12/01 07:27:19;;;;;;;104.00;41.30;;;;;;;;;;5113658;28;20138;-63
2022/12/01 07:29:45;;;;;;;107.50;40.13;;;;;;;;;;5112333;28;20524;-63
2022/12/01 07:32:11;;;;;;;97.38;37.60;;;;;;;;;;5112227;28;20052;-65
2022/12/01 07:34:37;;;;;;;101.30;39.03;;;;;;;;;;5093922;28;20600;-63
2022/12/01 07:37:03;;;;;;;106.63;40.97;;;;;;;;;;5111058;28;20042;-67
2022/12/01 07:39:29;;;;;;;107.47;40.85;;;;;;;;;;5110187;28;20126;-64
2022/12/01 07:41:55;;;;;;;98.05;39.45;;;;;;;;;;5112612;28;20036;-63
2022/12/01 07:44:21;;;;;;;101.18;39.65;;;;;;;;;;5111353;28;20038;-64
2022/12/01 07:46:48;;;;;;;91.68;37.50;;;;;;;;;;5112294;28;20118;-63
2022/12/01 07:49:14;;;;;;;99.03;39.85;;;;;;;;;;5111998;28;20069;-65
2022/12/01 07:51:40;;;;;;;99.47;39.08;;;;;;;;;;5111707;28;20062;-65
2022/12/01 07:54:07;;;;;;;95.45;40.33;;;;;;;;;;5112227;28;20091;-68
2022/12/01 07:56:33;;;;;;;106.38;39.90;;;;;;;;;;5110349;28;20047;-69
2022/12/01 07:58:59;;;;;;;108.13;40.92;;;;;;;;;;5110919;28;20082;-67
2022/12/01 08:01:25;;;;;;;97.10;39.25;;;;;;;;;;5111508;28;20047;-65
2022/12/01 08:03:53;;;;;;;101.97;41.25;;;;;;;;;;5109185;28;20038;-64
2022/12/01 08:06:19;;;;;;;96.53;38.65;;;;;;;;;;5110955;28;20044;-64
2022/12/01 08:08:46;;;;;;;101.15;38.83;;;;;;;;;;5111619;28;20043;-65
2022/12/01 08:11:16;;;;;;;108.82;41.55;;;;;;;;;;5109737;28;20035;-64
2022/12/01 08:13:42;;;;;;;104.03;40.60;;;;;;;;;;5102357;28;20089;-64
2022/12/01 08:16:09;;;;;;;106.82;40.25;;;;;;;;;;5110565;27;20061;-64
2022/12/01 08:18:36;;;;;;;112.07;43.20;;;;;;;;;;5112605;28;20047;-65
2022/12/01 08:21:03;;;;;;;96.47;37.67;;;;;;;;;;5111395;28;20065;-64
2022/12/01 08:23:29;;;;;;;102.63;39.83;;;;;;;;;;5111817;28;20113;-63
2022/12/01 08:25:56;;;;;;;100.18;40.13;;;;;;;;;;5102718;28;20157;-63
2022/12/01 08:28:22;;;;;;;105.38;39.92;;;;;;;;;;5100495;28;20048;-63
2022/12/01 08:30:48;;;;;;;95.65;39.03;;;;;;;;;;5111857;28;20070;-63
2022/12/01 08:33:14;;;;;;;104.13;40.90;;;;;;;;;;5109864;28;20028;-63
2022/12/01 08:35:40;;;;;;;104.25;40.40;;;;;;;;;;5110647;28;20070;-63
2022/12/01 08:38:07;;;;;;;105.85;39.35;;;;;;;;;;5111922;28;20051;-63
2022/12/01 08:40:33;;;;;;;95.90;39.08;;;;;;;;;;5103413;28;20048;-63
2022/12/01 08:42:59;;;;;;;98.35;36.55;;;;;;;;;;5109720;28;20039;-63
2022/12/01 08:45:25;;;;;;;97.20;37.72;;;;;;;;;;5109235;28;20047;-67
2022/12/01 08:47:52;;;;;;;98.90;39.35;;;;;;;;;;5110769;28;20631;-65
2022/12/01 08:50:18;;;;;;;105.68;42.50;;;;;;;;;;5110097;28;20490;-64
2022/12/01 08:52:45;;;;;;;114.07;40.97;;;;;;;;;;5109905;28;20040;-64
2022/12/01 08:55:11;;;;;;;100.30;37.80;;;;;;;;;;5111044;28;20036;-65
2022/12/01 08:57:37;;;;;;;100.63;38.38;;;;;;;;;;5110699;28;20188;-63
2022/12/01 09:00:04;;;;;;;100.85;39.17;;;;;;;;;;5111002;28;20055;-64
2022/12/01 09:02:30;;;;;;;100.47;39.88;;;;;;;;;;5105015;28;20047;-64
2022/12/01 09:04:56;;;;;;;106.03;40.85;;;;;;;;;;5109836;28;20439;-65
2022/12/01 09:07:22;;;;;;;97.57;39.92;;;;;;;;;;5091929;28;20048;-64
2022/12/01 09:09:49;;;;;;;105.60;41.33;;;;;;;;;;5110525;28;20043;-64
2022/12/01 09:12:15;;;;;;;109.30;40.45;;;;;;;;;;5110508;28;20044;-65
2022/12/01 09:14:48;;;;;;;106.00;40.75;;;;;;;;;;5112393;28;20466;-65
2022/12/01 09:17:14;;;;;;;105.60;40.17;;;;;;;;;;5109870;28;20075;-62
2022/12/01 09:19:41;;;;;;;107.05;40.45;;;;;;;;;;5109965;28;20051;-64
2022/12/01 09:22:07;;;;;;;108.07;41.30;;;;;;;;;;5110246;28;20048;-62
2022/12/01 09:24:33;;;;;;;100.28;39.50;;;;;;;;;;5110872;28;20044;-63
2022/12/01 09:26:59;;;;;;;105.85;41.22;;;;;;;;;;5093382;28;20044;-62
2022/12/01 09:29:25;;;;;;;103.32;41.35;;;;;;;;;;5107246;28;20035;-62
2022/12/01 09:31:54;;;;;;;103.80;39.08;;;;;;;;;;5110807;28;20085;-62
2022/12/01 09:34:20;;;;;;;104.13;39.95;;;;;;;;;;5111024;28;20053;-63
2022/12/01 09:36:47;;;;;;;102.03;39.65;;;;;;;;;;5108818;28;20549;-62
2022/12/01 09:39:14;;;;;;;95.53;38.10;;;;;;;;;;5110271;28;20046;-62
2022/12/01 09:41:57;;;;;;;115.43;41.33;;;;;;;;;;5110409;28;20047;-62
2022/12/01 09:44:35;;;;;;;97.03;39.90;;;;;;;;;;5105562;28;20048;-62
2022/12/01 09:47:17;;;;;;;100.03;36.75;;;;;;;;;;5110329;28;20044;-62
2022/12/01 09:49:59;;;;;;;93.40;37.90;;;;;;;;;;5109392;28;20046;-62
2022/12/01 09:52:27;;;;;;;96.15;38.20;;;;;;;;;;5110465;28;20035;-62
2022/12/01 09:54:54;;;;;;;94.43;38.75;;;;;;;;;;5109013;28;20051;-61
2022/12/01 09:57:34;;;;;;;102.15;40.15;;;;;;;;;;5111294;28;20126;-62
2022/12/01 10:00:01;;;;;;;101.07;39.45;;;;;;;;;;5112921;28;20051;-62
2022/12/01 10:02:33;;;;;;;99.95;38.83;;;;;;;;;;5114567;28;20048;-61
2022/12/01 10:05:01;;;;;;;92.88;36.90;;;;;;;;;;5107605;28;20119;-61
2022/12/01 10:07:31;;;;;;;93.88;38.72;;;;;;;;;;5114607;28;20092;-63
2022/12/01 10:09:57;;;;;;;105.13;39.35;;;;;;;;;;5114692;28;20501;-63
2022/12/01 10:12:26;;;;;;;91.93;36.47;;;;;;;;;;5112914;28;20164;-62
2022/12/01 10:14:53;;;;;;;90.15;38.30;;;;;;;;;;5115090;28;20402;-62
2022/12/01 10:17:38;;;;;;;97.30;38.83;;;;;;;;;;5114117;28;20059;-63
2022/12/01 10:20:04;;;;;;;97.78;38.85;;;;;;;;;;5114139;28;20047;-63
2022/12/01 10:22:33;;;;;;;101.57;41.30;;;;;;;;;;5115849;28;20090;-64
2022/12/01 10:25:11;;;;;;;105.88;40.80;;;;;;;;;;5114615;28;20084;-64
2022/12/01 10:27:51;;;;;;;94.93;39.17;;;;;;;;;;5113672;28;20044;-62
2022/12/01 10:30:18;;;;;;;93.43;38.10;;;;;;;;;;5110503;28;20075;-64
2022/12/01 10:32:52;;;;;;;98.60;39.40;;;;;;;;;;5112793;28;20419;-63
2022/12/01 10:35:20;;;;;;;98.35;38.70;;;;;;;;;;5112314;28;20054;-64
2022/12/01 10:37:54;;;;;;;96.80;37.75;;;;;;;;;;5111908;28;20044;-62
2022/12/01 10:40:21;;;;;;;96.43;38.80;;;;;;;;;;5108916;28;20055;-63
2022/12/01 10:42:48;;;;;;;93.35;38.13;;;;;;;;;;5112618;28;20062;-63
2022/12/01 10:45:17;;;;;;;93.13;37.20;;;;;;;;;;5113269;28;20118;-63
2022/12/01 10:48:02;;;;;;;92.80;37.10;;;;;;;;;;5112299;28;20131;-63
2022/12/01 10:50:28;;;;;;;91.45;35.95;;;;;;;;;;5105550;28;20027;-63
2022/12/01 10:52:54;;;;;;;90.68;37.40;;;;;;;;;;5113488;28;20071;-62
2022/12/01 10:55:25;;;;;;;97.63;37.60;;;;;;;;;;5112753;28;20043;-62
2022/12/01 10:57:51;;;;;;;86.25;37.60;;;;;;;;;;5102072;28;20348;-62
2022/12/01 11:00:37;;;;;;;89.13;37.05;;;;;;;;;;5108405;28;20044;-63
2022/12/01 11:03:03;;;;;;;90.78;37.40;;;;;;;;;;5094787;28;20048;-63
2022/12/01 11:05:32;;;;;;;89.07;36.53;;;;;;;;;;5113100;28;20069;-62
2022/12/01 11:07:58;;;;;;;85.47;35.72;;;;;;;;;;5111101;28;20127;-63
2022/12/01 11:10:35;;;;;;;88.47;36.60;;;;;;;;;;5110426;28;20040;-63
2022/12/01 11:13:01;;;;;;;84.72;34.80;;;;;;;;;;5111770;28;20119;-63
2022/12/01 11:15:31;;;;;;;83.53;34.85;;;;;;;;;;5101886;28;20707;-62
2022/12/01 11:18:20;;;;;;;85.03;35.20;;;;;;;;;;5111582;28;20138;-62
2022/12/01 11:20:46;;;;;;;83.25;34.17;;;;;;;;;;5109295;28;20042;-63
2022/12/01 11:23:21;;;;;;;85.25;34.08;;;;;;;;;;5111668;28;20796;-63
2022/12/01 11:26:10;;;;;;;80.43;32.97;;;;;;;;;;5103780;28;20035;-63
2022/12/01 11:28:40;;;;;;;80.78;34.10;;;;;;;;;;5093954;28;20663;-62
2022/12/01 11:31:07;;;;;;;88.80;35.35;;;;;;;;;;5112876;28;20122;-63
2022/12/01 11:33:39;;;;;;;80.78;34.60;;;;;;;;;;5112150;28;20086;-63
2022/12/01 11:36:05;;;;;;;77.82;32.83;;;;;;;;;;5112233;28;20047;-63
2022/12/01 11:38:33;;;;;;;78.07;32.17;;;;;;;;;;5112680;28;20126;-64
2022/12/01 11:40:59;;;;;;;76.05;33.13;;;;;;;;;;5112288;28;20035;-63
2022/12/01 11:43:32;;;;;;;81.80;33.78;;;;;;;;;;5112419;28;20050;-63
2022/12/01 11:46:00;;;;;;;75.35;32.78;;;;;;;;;;5112410;28;20118;-63
2022/12/01 11:48:28;;;;;;;76.43;33.30;;;;;;;;;;5111873;28;20054;-63
2022/12/01 11:51:05;;;;;;;76.10;33.85;;;;;;;;;;5113027;28;20043;-63
2022/12/01 11:53:35;;;;;;;79.95;33.97;;;;;;;;;;5112720;28;20045;-63
2022/12/01 11:56:22;;;;;;;76.68;32.72;;;;;;;;;;5112405;28;20039;-64
2022/12/01 11:58:49;;;;;;;82.07;35.72;;;;;;;;;;5092483;28;20044;-63
2022/12/01 12:01:18;;;;;;;76.50;32.67;;;;;;;;;;5102417;28;20490;-63
2022/12/01 12:03:56;;;;;;;71.43;32.50;;;;;;;;;;5105003;28;20093;-64
2022/12/01 12:06:26;;;;;;;78.35;33.40;;;;;;;;;;5111707;28;20055;-63
2022/12/01 12:09:08;;;;;;;73.80;33.85;;;;;;;;;;5112028;28;20044;-63
2022/12/01 12:11:52;;;;;;;71.53;32.10;;;;;;;;;;5103450;28;20040;-63
2022/12/01 12:14:39;;;;;;;68.05;30.92;;;;;;;;;;5110317;28;20065;-62
2022/12/01 12:17:24;;;;;;;72.90;31.73;;;;;;;;;;5108259;28;20059;-62
2022/12/01 12:20:14;;;;;;;75.93;30.98;;;;;;;;;;5100984;28;20040;-63
2022/12/01 12:22:47;;;;;;;71.93;32.45;;;;;;;;;;5090984;28;20032;-63
2022/12/01 12:25:16;;;;;;;72.18;31.92;;;;;;;;;;5098132;28;20067;-63
2022/12/01 12:27:42;;;;;;;72.68;31.23;;;;;;;;;;5092739;28;20151;-63
2022/12/01 12:30:17;;;;;;;78.57;33.55;;;;;;;;;;5107118;28;20107;-62
2022/12/01 12:32:43;;;;;;;71.85;32.78;;;;;;;;;;5108161;28;20040;-62
2022/12/01 12:35:23;;;;;;;75.30;34.10;;;;;;;;;;5112387;28;20377;-61
2022/12/01 12:38:07;;;;;;;73.57;32.65;;;;;;;;;;5108511;28;20090;-61
2022/12/01 12:40:33;;;;;;;72.95;31.75;;;;;;;;;;5102455;28;20114;-63
2022/12/01 12:43:07;;;;;;;68.55;32.63;;;;;;;;;;5112234;28;20168;-62
2022/12/01 12:45:51;;;;;;;74.15;31.65;;;;;;;;;;5111595;28;20035;-63
2022/12/01 12:48:23;;;;;;;70.72;30.65;;;;;;;;;;5111060;28;20052;-62
2022/12/01 12:50:49;;;;;;;72.15;32.42;;;;;;;;;;5110698;28;20486;-64
2022/12/01 12:53:19;;;;;;;64.97;31.33;;;;;;;;;;5111675;28;20096;-63
2022/12/01 12:55:47;;;;;;;70.32;32.15;;;;;;;;;;5111101;28;20043;-63
2022/12/01 12:58:28;;;;;;;72.22;32.15;;;;;;;;;;5107520;28;20078;-62
2022/12/01 13:00:59;;;;;;;72.22;32.58;;;;;;;;;;5109642;28;20122;-62
2022/12/01 13:03:25;;;;;;;72.77;32.67;;;;;;;;;;5106827;28;20051;-62
2022/12/01 13:06:06;;;;;;;71.38;32.42;;;;;;;;;;5104947;28;20297;-62
2022/12/01 13:08:41;;;;;;;68.40;31.80;;;;;;;;;;5109385;28;20428;-63
2022/12/01 13:11:07;;;;;;;69.00;31.13;;;;;;;;;;5111184;28;20042;-65
2022/12/01 13:13:37;;;;;;;71.55;30.83;;;;;;;;;;5110706;28;20127;-64
2022/12/01 13:16:04;;;;;;;70.07;31.80;;;;;;;;;;5110648;28;20051;-62
2022/12/01 13:18:49;;;;;;;72.32;30.48;;;;;;;;;;5110936;28;20047;-62
2022/12/01 13:21:19;;;;;;;69.40;30.75;;;;;;;;;;5109670;28;20109;-63
2022/12/01 13:23:46;;;;;;;64.95;31.02;;;;;;;;;;5111063;28;20136;-62
2022/12/01 13:26:13;;;;;;;65.35;29.33;;;;;;;;;;5099240;28;20048;-61
2022/12/01 13:28:58;;;;;;;62.30;29.10;;;;;;;;;;5104321;28;20096;-62
2022/12/01 13:31:24;;;;;;;63.95;29.25;;;;;;;;;;5111695;28;20039;-63
2022/12/01 13:33:53;;;;;;;65.80;29.42;;;;;;;;;;5117706;28;20089;-63
2022/12/01 13:36:20;;;;;;;64.40;29.52;;;;;;;;;;5117506;27;20043;-63
2022/12/01 13:38:56;;;;;;;62.97;29.23;;;;;;;;;;5117569;28;20078;-63
2022/12/01 13:41:23;;;;;;;58.83;28.08;;;;;;;;;;5105487;28;20043;-63
2022/12/01 13:43:59;;;;;;;54.30;27.52;;;;;;;;;;5118982;28;20043;-62
2022/12/01 13:46:27;;;;;;;63.80;28.45;;;;;;;;;;5117386;28;20044;-62
2022/12/01 13:48:55;;;;;;;52.97;27.05;;;;;;;;;;5117901;28;20070;-62
2022/12/01 13:51:22;;;;;;;53.88;26.02;;;;;;;;;;5117551;27;20046;-62
2022/12/01 13:54:03;;;;;;;54.60;27.55;;;;;;;;;;5117214;28;20089;-61
2022/12/01 13:56:35;;;;;;;52.00;25.67;;;;;;;;;;5110915;28;20603;-61
2022/12/01 13:59:03;;;;;;;53.53;27.35;;;;;;;;;;5110135;28;20551;-63
2022/12/01 14:01:30;;;;;;;52.88;25.75;;;;;;;;;;5115719;28;20040;-63
2022/12/01 14:04:00;;;;;;;53.22;26.05;;;;;;;;;;5117127;27;20359;-62
2022/12/01 14:06:29;;;;;;;55.58;26.80;;;;;;;;;;5116765;27;20046;-62
2022/12/01 14:09:04;;;;;;;54.42;26.00;;;;;;;;;;5116010;28;20047;-61
2022/12/01 14:11:30;;;;;;;58.42;26.90;;;;;;;;;;5116910;28;20057;-64
2022/12/01 14:14:11;;;;;;;57.20;27.10;;;;;;;;;;5116491;28;20126;-63
2022/12/01 14:16:47;;;;;;;56.38;28.85;;;;;;;;;;5115965;28;20120;-63
2022/12/01 14:19:33;;;;;;;60.50;28.90;;;;;;;;;;5111266;28;20096;-64
2022/12/01 14:22:00;;;;;;;58.72;29.30;;;;;;;;;;5116010;28;20489;-63
2022/12/01 14:24:29;;;;;;;56.38;28.27;;;;;;;;;;5116538;28;20051;-63
2022/12/01 14:26:55;;;;;;;63.85;28.17;;;;;;;;;;5099358;28;20040;-64